Time;durP1;ratioP1;P1;durP2;ratioP2;P2;SDS_P1;SDS_P2;PMS_P1;PMS_P2;Temp;Humidity;BMP_temperature;BMP_pressure;BME280_temperature;BME280_humidity;BME280_pressure;Samples;Min_cycle;Max_cycle;Signal;HPM_P1;HPM_P2
2022/10/09 00:01:46;;;;;;;;;;;;;;;15.98;66.64;100921.37;5408871;32;34952;-76
2022/10/09 00:04:48;;;;;;;;;;;;;;;15.14;69.68;100912.44;5409518;32;34988;-69
2022/10/09 00:07:50;;;;;;;;;;;;;;;15.20;70.17;100915.69;5410838;32;35246;-77
2022/10/09 00:10:51;;;;;;;;;;;;;;;16.07;66.34;100916.53;5406833;32;35256;-69
2022/10/09 00:13:53;;;;;;;;;;;;;;;15.82;66.96;100912.53;5424747;32;35502;-70
2022/10/09 00:16:58;;;;;;;;;;;;;;;15.51;68.27;100907.06;5394190;32;35413;-69
2022/10/09 00:20:00;;;;;;;;;;;;;;;15.45;69.15;100910.88;5425271;32;34810;-77
2022/10/09 00:23:01;;;;;;;;;;;;;;;16.20;65.77;100905.19;5406567;32;34311;-76
2022/10/09 00:26:03;;;;;;;;;;;;;;;15.49;68.13;100906.28;5408786;32;34734;-76
2022/10/09 00:29:05;;;;;;;;;;;;;;;15.60;67.98;100911.91;5421971;32;36088;-75
2022/10/09 00:32:07;;;;;;;;;;;;;;;15.77;67.38;100900.44;5407540;32;35999;-75
2022/10/09 00:35:09;;;;;;;;;;;;;;;15.84;67.15;100897.41;5411023;32;35011;-69
2022/10/09 00:38:11;;;;;;;;;;;;;;;15.14;69.81;100909.78;5407653;32;46892;-68
2022/10/09 00:41:22;;;;;;;;;;;;;;;14.61;72.45;100904.44;5424030;32;35625;-68
2022/10/09 00:44:43;;;;;;;;;;;;;;;14.81;72.59;100892.91;5386987;32;35425;-74
2022/10/09 00:47:49;;;;;;;;;;;;;;;14.88;72.47;100884.63;5398856;32;45207;-69
2022/10/09 00:50:52;;;;;;;;;;;;;;;15.33;70.70;100875.31;5411686;32;36152;-76
2022/10/09 00:53:54;;;;;;;;;;;;;;;15.73;68.79;100875.06;5392120;32;34806;-77
2022/10/09 00:56:55;;;;;;;;;;;;;;;15.55;68.36;100875.03;5423940;32;34909;-68
2022/10/09 00:59:58;;;;;;;;;;;;;;;15.55;67.84;100874.19;5395871;32;34694;-69
2022/10/09 01:03:00;;;;;;;;;;;;;;;14.52;72.97;100874.00;5410415;32;35307;-77
2022/10/09 01:06:06;;;;;;;;;;;;;;;14.62;72.79;100869.16;5422658;32;35365;-69
2022/10/09 01:09:12;;;;;;;;;;;;;;;14.56;73.42;100874.72;5406063;32;35457;-69
2022/10/09 01:12:37;;;;;;;;;;;;;;;14.53;73.71;100873.06;5409143;32;45917;-69
2022/10/09 01:15:42;;;;;;;;;;;;;;;14.94;72.29;100864.03;5393296;32;43073;-75
2022/10/09 01:18:48;;;;;;;;;;;;;;;15.16;71.19;100854.13;5414434;32;34940;-69
2022/10/09 01:21:52;;;;;;;;;;;;;;;15.53;68.81;100858.38;5419047;32;35640;-69
2022/10/09 01:24:54;;;;;;;;;;;;;;;16.30;65.48;100859.59;5393640;32;34587;-76
2022/10/09 01:27:56;;;;;;;;;;;;;;;16.14;65.84;100867.53;5421732;32;35383;-76
2022/10/09 01:30:59;;;;;;;;;;;;;;;16.05;66.35;100868.03;5405786;32;35355;-68
2022/10/09 01:34:00;;;;;;;;;;;;;;;15.88;66.35;100867.13;5408214;32;35240;-68
2022/10/09 01:37:02;;;;;;;;;;;;;;;15.92;66.53;100868.69;5409137;32;34781;-69
2022/10/09 01:40:04;;;;;;;;;;;;;;;14.66;71.08;100861.91;5413455;32;35365;-77
2022/10/09 01:43:06;;;;;;;;;;;;;;;14.43;73.76;100857.72;5420726;32;34452;-75
2022/10/09 01:46:18;;;;;;;;;;;;;;;14.45;73.52;100861.13;5386834;32;35733;-68
2022/10/09 01:49:40;;;;;;;;;;;;;;;14.95;71.61;100860.50;5410414;32;34903;-77
2022/10/09 01:52:41;;;;;;;;;;;;;;;15.35;69.42;100861.97;5407121;32;46937;-69
2022/10/09 01:55:46;;;;;;;;;;;;;;;15.57;68.58;100862.56;5418486;32;34421;-78
2022/10/09 01:58:55;;;;;;;;;;;;;;;15.55;68.76;100879.50;5415487;32;34327;-76
2022/10/09 02:01:57;;;;;;;;;;;;;;;14.60;73.00;100874.50;5405419;32;35513;-68
2022/10/09 02:04:59;;;;;;;;;;;;;;;14.51;74.33;100879.38;5424948;32;34938;-69
2022/10/09 02:08:01;;;;;;;;;;;;;;;14.85;72.09;100881.25;5393386;32;34791;-69
2022/10/09 02:11:03;;;;;;;;;;;;;;;14.53;73.34;100877.50;5423731;32;34892;-70
2022/10/09 02:14:05;;;;;;;;;;;;;;;15.05;70.89;100874.97;5393515;32;36990;-77
2022/10/09 02:17:09;;;;;;;;;;;;;;;15.02;71.14;100886.56;5412418;32;34334;-68
2022/10/09 02:20:24;;;;;;;;;;;;;;;14.73;72.41;100879.19;5406223;32;47035;-77
2022/10/09 02:23:26;;;;;;;;;;;;;;;15.05;70.73;100883.75;5388550;32;35385;-76
2022/10/09 02:26:28;;;;;;;;;;;;;;;15.18;70.57;100881.34;5410469;32;34627;-76
2022/10/09 02:29:30;;;;;;;;;;;;;;;14.85;70.67;100884.75;5392508;32;34727;-69
2022/10/09 02:32:31;;;;;;;;;;;;;;;14.93;71.81;100884.37;5422459;32;34570;-77
2022/10/09 02:35:33;;;;;;;;;;;;;;;15.04;71.25;100890.00;5410158;32;35009;-76
2022/10/09 02:38:35;;;;;;;;;;;;;;;15.21;69.99;100888.31;5394750;32;34303;-69
2022/10/09 02:41:37;;;;;;;;;;;;;;;15.25;70.18;100890.69;5412598;32;34915;-76
2022/10/09 02:44:39;;;;;;;;;;;;;;;14.88;71.44;100894.34;5383715;32;34399;-76
2022/10/09 02:47:41;;;;;;;;;;;;;;;14.81;72.29;100900.84;5415399;32;45260;-69
2022/10/09 02:50:42;;;;;;;;;;;;;;;14.24;74.85;100898.22;5409530;32;35564;-75
2022/10/09 02:53:44;;;;;;;;;;;;;;;14.79;73.53;100905.34;5408752;32;34689;-70
2022/10/09 02:56:46;;;;;;;;;;;;;;;15.30;71.14;100903.72;5397584;32;35331;-69
2022/10/09 02:59:48;;;;;;;;;;;;;;;15.15;70.56;100908.00;5408997;32;34734;-76
2022/10/09 03:02:50;;;;;;;;;;;;;;;14.74;72.64;100904.72;5426075;32;35063;-76
2022/10/09 03:05:59;;;;;;;;;;;;;;;15.45;70.01;100910.88;5409238;32;34548;-68
2022/10/09 03:09:01;;;;;;;;;;;;;;;15.52;69.65;100916.72;5411036;32;35021;-68
2022/10/09 03:12:03;;;;;;;;;;;;;;;15.54;68.83;100905.13;5408877;32;35107;-69
2022/10/09 03:15:05;;;;;;;;;;;;;;;14.97;72.09;100912.41;5421016;32;34153;-76
2022/10/09 03:18:07;;;;;;;;;;;;;;;15.09;71.06;100914.47;5412648;32;34909;-68
2022/10/09 03:21:11;;;;;;;;;;;;;;;15.16;70.82;100907.91;5409003;32;35529;-68
2022/10/09 03:24:13;;;;;;;;;;;;;;;16.00;67.49;100917.81;5425879;32;44676;-68
2022/10/09 03:27:14;;;;;;;;;;;;;;;16.02;67.18;100915.91;5408157;32;34291;-76
2022/10/09 03:30:17;;;;;;;;;;;;;;;15.98;67.81;100926.69;5423003;32;35796;-75
2022/10/09 03:33:19;;;;;;;;;;;;;;;16.35;65.61;100923.84;5407884;32;35473;-76
2022/10/09 03:36:21;;;;;;;;;;;;;;;15.22;70.41;100932.37;5407447;32;35303;-68
2022/10/09 03:39:22;;;;;;;;;;;;;;;15.24;70.61;100927.88;5401242;32;35363;-68
2022/10/09 03:42:24;;;;;;;;;;;;;;;15.30;70.25;100925.75;5407762;32;35534;-77
2022/10/09 03:45:26;;;;;;;;;;;;;;;15.52;68.92;100922.91;5406913;32;35388;-76
2022/10/09 03:48:28;;;;;;;;;;;;;;;15.37;69.82;100924.50;5405422;32;35130;-76
2022/10/09 03:51:30;;;;;;;;;;;;;;;15.52;69.36;100925.56;5425092;32;34911;-69
2022/10/09 03:54:32;;;;;;;;;;;;;;;15.50;69.95;100935.34;5408632;32;34877;-69
2022/10/09 03:57:34;;;;;;;;;;;;;;;14.80;72.96;100937.03;5420474;32;35364;-69
2022/10/09 04:00:35;;;;;;;;;;;;;;;14.85;73.57;100931.53;5415279;32;35764;-68
2022/10/09 04:03:37;;;;;;;;;;;;;;;15.34;71.35;100945.03;5407919;32;35414;-69
2022/10/09 04:06:39;;;;;;;;;;;;;;;16.43;66.52;100948.19;5422373;32;34368;-69
2022/10/09 04:09:41;;;;;;;;;;;;;;;16.35;66.70;100956.53;5408448;32;45277;-76
2022/10/09 04:12:43;;;;;;;;;;;;;;;15.49;70.50;100951.31;5423734;32;35427;-76
2022/10/09 04:15:48;;;;;;;;;;;;;;;15.80;69.82;100934.75;5409293;32;35688;-77
2022/10/09 04:18:50;;;;;;;;;;;;;;;16.10;69.12;100938.44;5403382;32;34348;-68
2022/10/09 04:21:52;;;;;;;;;;;;;;;15.88;69.98;100941.34;5416883;32;35332;-76
2022/10/09 04:24:54;;;;;;;;;;;;;;;16.19;68.96;100940.59;5408224;32;34645;-69
2022/10/09 04:27:56;;;;;;;;;;;;;;;16.49;67.30;100938.09;5418490;32;34901;-77
2022/10/09 04:30:57;;;;;;;;;;;;;;;15.59;71.07;100934.03;5392596;32;35307;-69
2022/10/09 04:33:59;;;;;;;;;;;;;;;16.64;67.69;100944.34;5423803;32;34843;-77
2022/10/09 04:37:01;;;;;;;;;;;;;;;17.16;65.08;100948.53;5408698;32;35462;-68
2022/10/09 04:40:03;;;;;;;;;;;;;;;15.65;71.08;100950.50;5403880;32;34606;-68
2022/10/09 04:43:05;;;;;;;;;;;;;;;16.53;68.77;100958.19;5416619;32;35448;-75
2022/10/09 04:46:08;;;;;;;;;;;;;;;17.02;66.41;100963.47;5387793;32;34850;-69
2022/10/09 04:49:12;;;;;;;;;;;;;;;16.20;69.49;100944.97;5423267;32;44563;-76
2022/10/09 04:52:13;;;;;;;;;;;;;;;16.86;67.42;100957.28;5408217;32;34879;-77
2022/10/09 04:55:15;;;;;;;;;;;;;;;16.28;69.46;100968.41;5422724;32;34865;-68
2022/10/09 04:58:17;;;;;;;;;;;;;;;17.06;67.01;100990.69;5409304;32;35336;-69
2022/10/09 05:01:23;;;;;;;;;;;;;;;17.36;65.48;101012.00;5415588;32;34962;-70
2022/10/09 05:04:25;;;;;;;;;;;;;;;16.65;67.21;101004.44;5419895;32;35432;-76
2022/10/09 05:07:27;;;;;;;;;;;;;;;15.84;73.55;101006.09;5408964;32;35060;-69
2022/10/09 05:10:29;;;;;;;;;;;;;;;15.47;75.05;101006.19;5410137;32;35474;-76
2022/10/09 05:13:32;;;;;;;;;;;;;;;15.42;75.49;100994.00;5392920;32;35071;-69
2022/10/09 05:16:34;;;;;;;;;;;;;;;15.86;73.51;100990.09;5421882;32;34770;-69
2022/10/09 05:19:55;;;;;;;;;;;;;;;15.92;73.39;100982.69;5410774;32;35670;-68
2022/10/09 05:22:57;;;;;;;;;;;;;;;15.54;75.59;100995.19;5406854;32;36018;-69
2022/10/09 05:26:00;;;;;;;;;;;;;;;15.88;73.23;100989.06;5425055;32;35583;-69
2022/10/09 05:29:02;;;;;;;;;;;;;;;15.62;74.12;100994.84;5404461;32;34856;-69
2022/10/09 05:32:04;;;;;;;;;;;;;;;15.95;73.70;101008.16;5421547;32;33111;-77
2022/10/09 05:35:06;;;;;;;;;;;;;;;16.07;72.88;101015.50;5395255;32;35311;-69
2022/10/09 05:38:07;;;;;;;;;;;;;;;16.33;71.35;101013.25;5421305;32;34137;-69
2022/10/09 05:41:10;;;;;;;;;;;;;;;15.90;72.26;101020.78;5411157;32;37334;-69
2022/10/09 05:44:12;;;;;;;;;;;;;;;15.75;73.62;101025.09;5399358;32;46190;-77
2022/10/09 05:47:16;;;;;;;;;;;;;;;15.75;73.71;101033.03;5409108;32;35029;-69
2022/10/09 05:50:18;;;;;;;;;;;;;;;15.67;73.69;101033.44;5406415;32;35694;-71
2022/10/09 05:53:20;;;;;;;;;;;;;;;15.65;73.91;101039.75;5421369;32;34693;-76
2022/10/09 05:56:26;;;;;;;;;;;;;;;15.85;73.76;101039.59;5408963;32;34990;-68
2022/10/09 05:59:28;;;;;;;;;;;;;;;15.31;75.78;101036.06;5419716;32;35693;-70
2022/10/09 06:02:29;;;;;;;;;;;;;;;15.36;75.57;101038.50;5412245;32;35978;-68
2022/10/09 06:05:31;;;;;;;;;;;;;;;16.09;72.47;101044.56;5406855;32;35535;-77
2022/10/09 06:08:34;;;;;;;;;;;;;;;15.75;75.41;101056.88;5423255;32;34597;-75
2022/10/09 06:11:37;;;;;;;;;;;;;;;16.01;72.96;101047.63;5407116;32;34850;-76
2022/10/09 06:14:39;;;;;;;;;;;;;;;15.68;73.79;101056.34;5421249;32;34781;-69
2022/10/09 06:17:40;;;;;;;;;;;;;;;16.30;72.28;101047.94;5405700;32;44439;-68
2022/10/09 06:20:51;;;;;;;;;;;;;;;16.60;70.52;101051.59;5418346;32;34455;-69
2022/10/09 06:23:54;;;;;;;;;;;;;;;16.79;68.17;101057.66;5402428;32;35450;-76
2022/10/09 06:26:56;;;;;;;;;;;;;;;16.58;69.90;101065.88;5404847;32;35429;-77
2022/10/09 06:29:58;;;;;;;;;;;;;;;16.72;69.39;101063.38;5406848;32;35360;-76
2022/10/09 06:33:00;;;;;;;;;;;;;;;17.42;66.60;101079.88;5406029;32;39711;-75
2022/10/09 06:36:04;;;;;;;;;;;;;;;17.93;63.69;101077.84;5422966;32;34963;-76
2022/10/09 06:39:11;;;;;;;;;;;;;;;19.14;59.64;101069.50;5408252;32;44865;-76
2022/10/09 06:42:13;;;;;;;;;;;;;;;19.74;57.23;101062.94;5407636;32;35508;-69
2022/10/09 06:45:14;;;;;;;;;;;;;;;19.83;56.67;101073.00;5404285;32;35129;-69
2022/10/09 06:48:16;;;;;;;;;;;;;;;20.79;54.21;101074.37;5401708;32;34442;-69
2022/10/09 06:51:19;;;;;;;;;;;;;;;20.95;53.26;101079.50;5420821;32;35019;-76
2022/10/09 06:54:21;;;;;;;;;;;;;;;20.46;53.85;101090.97;5408052;32;34741;-77
2022/10/09 06:57:23;;;;;;;;;;;;;;;20.60;52.49;101090.00;5421646;32;34489;-68
2022/10/09 07:00:25;;;;;;;;;;;;;;;21.62;50.46;101096.00;5408820;32;35321;-70
2022/10/09 07:03:26;;;;;;;;;;;;;;;20.94;51.39;101083.16;5407508;32;35564;-69
2022/10/09 07:06:29;;;;;;;;;;;;;;;21.70;48.94;101089.22;5421231;32;35134;-70
2022/10/09 07:09:31;;;;;;;;;;;;;;;22.60;45.81;101080.50;5406499;32;34915;-75
2022/10/09 07:12:33;;;;;;;;;;;;;;;21.70;48.44;101087.41;5422262;32;34241;-74
2022/10/09 07:15:35;;;;;;;;;;;;;;;20.84;50.38;101100.78;5409208;32;34403;-76
2022/10/09 07:18:37;;;;;;;;;;;;;;;22.67;45.77;101089.78;5424137;32;36039;-76
2022/10/09 07:21:40;;;;;;;;;;;;;;;22.50;45.91;101081.34;5410084;32;34850;-69
2022/10/09 07:24:42;;;;;;;;;;;;;;;23.47;43.97;101089.59;5410359;32;44626;-76
2022/10/09 07:27:44;;;;;;;;;;;;;;;23.02;43.84;101082.62;5422855;32;34796;-76
2022/10/09 07:30:46;;;;;;;;;;;;;;;23.33;42.96;101086.34;5406950;32;35609;-77
2022/10/09 07:33:48;;;;;;;;;;;;;;;22.61;44.68;101095.63;5423753;32;35650;-77
2022/10/09 07:36:50;;;;;;;;;;;;;;;22.47;44.86;101092.28;5395524;32;34744;-68
2022/10/09 07:39:52;;;;;;;;;;;;;;;22.51;44.32;101097.31;5410985;32;34687;-70
2022/10/09 07:42:53;;;;;;;;;;;;;;;20.55;49.32;101106.38;5408764;32;35043;-74
2022/10/09 07:45:58;;;;;;;;;;;;;;;20.39;50.45;101113.66;5387938;32;34362;-69
2022/10/09 07:49:01;;;;;;;;;;;;;;;20.65;49.75;101111.06;5424380;32;34852;-76
2022/10/09 07:52:02;;;;;;;;;;;;;;;19.60;53.15;101119.00;5409288;32;34597;-69
2022/10/09 07:55:04;;;;;;;;;;;;;;;20.42;51.08;101120.63;5423551;32;35176;-70
2022/10/09 07:58:06;;;;;;;;;;;;;;;20.33;51.74;101119.44;5394732;32;35913;-70
2022/10/09 08:01:08;;;;;;;;;;;;;;;19.66;53.63;101122.13;5423492;32;36329;-76
2022/10/09 08:04:10;;;;;;;;;;;;;;;18.92;56.66;101117.09;5410329;32;44530;-70
2022/10/09 08:07:12;;;;;;;;;;;;;;;18.87;57.33;101125.37;5407691;32;35403;-69
2022/10/09 08:10:14;;;;;;;;;;;;;;;19.23;56.27;101121.34;5424802;32;34933;-69
2022/10/09 08:13:16;;;;;;;;;;;;;;;19.96;52.98;101124.56;5392912;32;35961;-69
2022/10/09 08:16:18;;;;;;;;;;;;;;;20.41;51.89;101130.44;5422394;32;33254;-76
2022/10/09 08:19:20;;;;;;;;;;;;;;;20.40;51.90;101128.72;5410729;32;35171;-69
2022/10/09 08:22:22;;;;;;;;;;;;;;;20.59;51.36;101127.50;5422738;32;34981;-76
2022/10/09 08:25:24;;;;;;;;;;;;;;;19.43;53.85;101128.91;5408985;32;35172;-76
2022/10/09 08:28:26;;;;;;;;;;;;;;;18.66;56.64;101131.97;5391578;32;35052;-69
2022/10/09 08:31:28;;;;;;;;;;;;;;;19.03;55.79;101132.41;5421994;32;35053;-68
2022/10/09 08:34:30;;;;;;;;;;;;;;;18.90;55.76;101130.50;5393976;32;34874;-70
2022/10/09 08:37:31;;;;;;;;;;;;;;;19.09;55.29;101145.34;5423268;32;34344;-69
2022/10/09 08:40:36;;;;;;;;;;;;;;;19.28;55.25;101145.91;5394911;32;35011;-77
2022/10/09 08:43:40;;;;;;;;;;;;;;;19.00;56.67;101143.25;5421322;32;34705;-68
2022/10/09 08:46:42;;;;;;;;;;;;;;;19.70;54.68;101136.97;5388660;32;44819;-70
2022/10/09 08:49:44;;;;;;;;;;;;;;;19.53;53.63;101145.19;5408118;32;35045;-77
2022/10/09 08:52:46;;;;;;;;;;;;;;;20.37;51.37;101144.12;5422687;32;35398;-78
2022/10/09 08:55:55;;;;;;;;;;;;;;;20.41;47.78;101151.78;5407824;32;35916;-69
2022/10/09 08:58:57;;;;;;;;;;;;;;;19.33;50.12;101156.28;5422738;32;35169;-77
2022/10/09 09:02:01;;;;;;;;;;;;;;;19.32;51.67;101162.53;5393287;32;34726;-77
2022/10/09 09:05:03;;;;;;;;;;;;;;;19.62;52.79;101165.94;5415720;32;34889;-69
2022/10/09 09:08:24;;;;;;;;;;;;;;;19.70;52.46;101158.28;5415242;32;35277;-77
2022/10/09 09:11:29;;;;;;;;;;;;;;;19.93;51.73;101162.13;5394806;32;35830;-70
2022/10/09 09:14:47;;;;;;;;;;;;;;;20.00;50.51;101162.59;5397252;32;866687;-70
2022/10/09 09:18:07;;;;;;;;;;;;;;;19.46;48.42;101165.19;5406006;32;44600;-77
2022/10/09 09:21:09;;;;;;;;;;;;;;;19.94;46.68;101169.19;5413613;32;34538;-70
2022/10/09 09:24:13;;;;;;;;;;;;;;;19.67;47.23;101173.66;5405186;32;44704;-77
2022/10/09 09:27:19;;;;;;;;;;;;;;;20.01;47.39;101178.50;5392744;32;35605;-70
2022/10/09 09:30:26;;;;;;;;;;;;;;;19.98;47.61;101172.53;5419922;32;35161;-71
2022/10/09 09:33:32;;;;;;;;;;;;;;;20.73;46.37;101172.78;5392363;32;34926;-70
2022/10/09 09:36:39;;;;;;;;;;;;;;;21.12;46.13;101176.31;5419824;32;34739;-77
2022/10/09 09:39:41;;;;;;;;;;;;;;;20.42;47.72;101184.72;5409932;32;45702;-70
2022/10/09 09:43:04;;;;;;;;;;;;;;;20.36;48.07;101182.47;5393299;32;35890;-77
2022/10/09 09:46:09;;;;;;;;;;;;;;;20.66;47.56;101195.56;5400333;32;35089;-78
2022/10/09 09:49:15;;;;;;;;;;;;;;;23.21;42.59;101172.19;5395030;32;44871;-70
2022/10/09 09:52:17;;;;;;;;;;;;;;;22.89;41.53;101187.28;5407691;32;34181;-71
2022/10/09 09:55:23;;;;;;;;;;;;;;;24.43;38.94;101168.50;5393804;32;35682;-70
2022/10/09 09:58:28;;;;;;;;;;;;;;;23.79;40.24;101174.69;5392792;32;34657;-71
2022/10/09 10:01:30;;;;;;;;;;;;;;;22.89;42.42;101184.59;5421964;32;35576;-78
2022/10/09 10:04:32;;;;;;;;;;;;;;;23.86;41.25;101175.03;5407876;32;34615;-69
2022/10/09 10:07:34;;;;;;;;;;;;;;;24.24;39.46;101170.00;5421694;32;35271;-70
2022/10/09 10:10:36;;;;;;;;;;;;;;;26.55;35.47;101172.87;5407562;32;36608;-71
2022/10/09 10:13:44;;;;;;;;;;;;;;;27.12;34.54;101168.34;5421526;32;35040;-77
2022/10/09 10:16:50;;;;;;;;;;;;;;;27.95;31.94;101170.03;5394775;32;45493;-69
2022/10/09 10:19:52;;;;;;;;;;;;;;;29.71;29.87;101159.00;5393038;32;34674;-70
2022/10/09 10:22:54;;;;;;;;;;;;;;;28.97;30.59;101166.78;5406378;32;35487;-69
2022/10/09 10:25:56;;;;;;;;;;;;;;;25.75;36.04;101177.47;5407762;32;33878;-78
2022/10/09 10:29:01;;;;;;;;;;;;;;;27.36;33.04;101168.63;5404962;32;33840;-70
2022/10/09 10:32:12;;;;;;;;;;;;;;;26.69;33.90;101175.94;5404680;32;35065;-76
2022/10/09 10:35:16;;;;;;;;;;;;;;;25.73;35.33;101171.41;5412426;32;44528;-70
2022/10/09 10:38:21;;;;;;;;;;;;;;;26.59;33.96;101175.09;5401899;32;35136;-76
2022/10/09 10:41:25;;;;;;;;;;;;;;;26.82;34.00;101170.25;5404858;32;35743;-77
2022/10/09 10:44:46;;;;;;;;;;;;;;;25.27;35.52;101174.66;5396374;32;34145;-69
2022/10/09 10:47:48;;;;;;;;;;;;;;;23.72;39.42;101173.50;5384904;32;45517;-77
2022/10/09 10:50:57;;;;;;;;;;;;;;;24.19;38.41;101177.59;5409412;32;34389;-76
2022/10/09 10:54:01;;;;;;;;;;;;;;;24.71;37.88;101172.34;5412981;32;35680;-70
2022/10/09 10:57:16;;;;;;;;;;;;;;;23.66;40.32;101174.84;5408341;32;35284;-78
2022/10/09 11:00:17;;;;;;;;;;;;;;;23.56;40.85;101176.53;5424053;32;44693;-78
2022/10/09 11:03:28;;;;;;;;;;;;;;;23.14;42.10;101181.69;5393571;32;35534;-71
2022/10/09 11:06:36;;;;;;;;;;;;;;;22.79;43.36;101186.25;5423661;32;34648;-69
2022/10/09 11:09:38;;;;;;;;;;;;;;;21.71;45.93;101179.22;5410393;32;35693;-70
2022/10/09 11:12:41;;;;;;;;;;;;;;;21.42;46.36;101182.19;5407241;32;42976;-76
2022/10/09 11:15:55;;;;;;;;;;;;;;;22.46;44.09;101177.16;5424154;32;35822;-71
2022/10/09 11:19:02;;;;;;;;;;;;;;;21.33;45.27;101174.84;5410149;32;34387;-78
2022/10/09 11:22:23;;;;;;;;;;;;;;;23.31;41.24;101164.25;5422779;32;34542;-77
2022/10/09 11:25:29;;;;;;;;;;;;;;;22.70;42.73;101174.41;5409690;32;34982;-78
2022/10/09 11:28:37;;;;;;;;;;;;;;;23.01;42.58;101161.34;5392270;32;36838;-78
2022/10/09 11:31:47;;;;;;;;;;;;;;;24.06;40.35;101166.19;5407321;32;34284;-70
2022/10/09 11:35:06;;;;;;;;;;;;;;;23.29;41.43;101159.97;5407459;32;44669;-76
2022/10/09 11:38:17;;;;;;;;;;;;;;;23.79;40.29;101161.28;5408646;32;35435;-78
2022/10/09 11:41:19;;;;;;;;;;;;;;;22.43;41.90;101161.34;5408796;32;44583;-76
2022/10/09 11:44:30;;;;;;;;;;;;;;;22.50;41.65;101162.56;5390864;32;33859;-78
2022/10/09 11:47:41;;;;;;;;;;;;;;;23.01;40.85;101153.31;5413025;32;35096;-76
2022/10/09 11:50:46;;;;;;;;;;;;;;;22.14;42.42;101152.81;5390875;32;44667;-79
2022/10/09 11:53:47;;;;;;;;;;;;;;;23.12;40.75;101146.13;5424117;32;34786;-70
2022/10/09 11:56:57;;;;;;;;;;;;;;;22.02;43.63;101146.53;5394187;32;34492;-71
2022/10/09 12:00:06;;;;;;;;;;;;;;;21.93;44.07;101152.59;5402056;32;34947;-80
2022/10/09 12:03:18;;;;;;;;;;;;;;;22.58;42.42;101154.78;5418994;32;34799;-70
2022/10/09 12:06:21;;;;;;;;;;;;;;;22.41;42.93;101152.53;5395068;32;35440;-77
2022/10/09 12:09:23;;;;;;;;;;;;;;;22.44;43.09;101145.13;5425106;32;35267;-69
2022/10/09 12:12:25;;;;;;;;;;;;;;;22.07;43.09;101144.38;5395205;32;35518;-78
2022/10/09 12:15:35;;;;;;;;;;;;;;;22.49;42.65;101141.25;5409477;32;35659;-78
2022/10/09 12:18:38;;;;;;;;;;;;;;;22.64;42.24;101148.09;5382979;32;35282;-77
2022/10/09 12:21:45;;;;;;;;;;;;;;;22.38;43.21;101144.75;5406138;32;45376;-72
2022/10/09 12:24:48;;;;;;;;;;;;;;;23.02;41.60;101136.22;5424578;32;34961;-77
2022/10/09 12:27:51;;;;;;;;;;;;;;;23.12;41.46;101142.56;5392697;32;35359;-70
2022/10/09 12:30:54;;;;;;;;;;;;;;;23.40;40.76;101130.47;5420595;32;35108;-70
2022/10/09 12:33:58;;;;;;;;;;;;;;;23.02;41.13;101138.91;5393534;32;34468;-70
2022/10/09 12:37:08;;;;;;;;;;;;;;;23.90;39.06;101138.91;5417702;32;35433;-71
2022/10/09 12:40:14;;;;;;;;;;;;;;;23.30;39.89;101134.87;5416264;32;44987;-71
2022/10/09 12:43:17;;;;;;;;;;;;;;;21.75;43.88;101143.25;5407879;32;35572;-78
2022/10/09 12:46:25;;;;;;;;;;;;;;;21.74;43.76;101138.87;5386841;32;35028;-69
2022/10/09 12:49:27;;;;;;;;;;;;;;;22.25;41.73;101135.97;5410215;32;34400;-77
2022/10/09 12:52:29;;;;;;;;;;;;;;;21.97;42.00;101132.66;5422737;32;35280;-77
2022/10/09 12:55:31;;;;;;;;;;;;;;;22.62;40.79;101118.75;5409291;32;35572;-77
2022/10/09 12:58:35;;;;;;;;;;;;;;;21.93;42.62;101133.84;5410747;32;34441;-69
2022/10/09 13:01:38;;;;;;;;;;;;;;;22.26;42.00;101122.44;5408620;32;35248;-76
2022/10/09 13:04:40;;;;;;;;;;;;;;;22.82;40.38;101108.31;5394560;32;36895;-76
2022/10/09 13:07:42;;;;;;;;;;;;;;;21.83;42.89;101109.62;5422762;32;34746;-77
2022/10/09 13:10:49;;;;;;;;;;;;;;;21.49;43.95;101116.59;5394981;32;35095;-77
2022/10/09 13:13:51;;;;;;;;;;;;;;;23.17;40.59;101097.47;5421735;32;34980;-68
2022/10/09 13:16:53;;;;;;;;;;;;;;;24.16;39.09;101100.00;5394439;32;34844;-77
2022/10/09 13:19:56;;;;;;;;;;;;;;;25.41;36.04;101095.38;5409568;32;35114;-77
2022/10/09 13:22:59;;;;;;;;;;;;;;;26.46;34.17;101083.78;5422558;32;35893;-70
2022/10/09 13:26:01;;;;;;;;;;;;;;;27.97;31.87;101078.84;5394245;32;34212;-70
2022/10/09 13:29:05;;;;;;;;;;;;;;;29.38;29.91;101078.50;5406104;32;35636;-79
2022/10/09 13:32:09;;;;;;;;;;;;;;;30.55;27.59;101081.94;5392212;32;34537;-79
2022/10/09 13:35:11;;;;;;;;;;;;;;;32.44;24.98;101075.22;5420592;32;44212;-70
2022/10/09 13:38:14;;;;;;;;;;;;;;;32.22;25.02;101072.38;5409621;32;35450;-69
2022/10/09 13:41:20;;;;;;;;;;;;;;;31.62;25.89;101075.88;5408907;32;35545;-70
2022/10/09 13:44:22;;;;;;;;;;;;;;;32.01;25.04;101070.34;5399771;32;34798;-75
2022/10/09 13:47:26;;;;;;;;;;;;;;;29.61;27.99;101073.31;5396836;32;35113;-77
2022/10/09 13:50:28;;;;;;;;;;;;;;;26.23;33.30;101085.09;5423973;32;34979;-78
2022/10/09 13:53:30;;;;;;;;;;;;;;;25.71;34.53;101075.59;5406775;32;34995;-71
2022/10/09 13:56:32;;;;;;;;;;;;;;;25.44;34.82;101081.63;5417081;32;35547;-70
2022/10/09 13:59:34;;;;;;;;;;;;;;;23.42;38.13;101081.06;5400993;32;35295;-70
2022/10/09 14:02:36;;;;;;;;;;;;;;;23.37;38.07;101082.44;5407470;32;33664;-70
2022/10/09 14:05:39;;;;;;;;;;;;;;;22.85;39.06;101076.72;5423350;32;35196;-70
2022/10/09 14:08:42;;;;;;;;;;;;;;;23.01;39.46;101070.19;5402359;32;44684;-71
2022/10/09 14:11:44;;;;;;;;;;;;;;;23.14;39.98;101074.44;5421748;32;35243;-78
2022/10/09 14:14:46;;;;;;;;;;;;;;;24.22;38.06;101074.44;5407737;32;35709;-69
2022/10/09 14:17:48;;;;;;;;;;;;;;;23.14;40.23;101079.81;5415057;32;34243;-79
2022/10/09 14:20:50;;;;;;;;;;;;;;;23.03;40.72;101076.28;5401943;32;34447;-78
2022/10/09 14:23:52;;;;;;;;;;;;;;;23.39;39.61;101075.97;5414272;32;35733;-79
2022/10/09 14:26:54;;;;;;;;;;;;;;;23.32;40.04;101076.63;5413546;32;35437;-71
2022/10/09 14:29:56;;;;;;;;;;;;;;;22.64;41.90;101073.94;5408374;32;34958;-69
2022/10/09 14:32:58;;;;;;;;;;;;;;;23.68;39.21;101076.28;5426945;32;34932;-77
2022/10/09 14:36:07;;;;;;;;;;;;;;;23.35;39.77;101068.31;5412967;32;35585;-70
2022/10/09 14:39:08;;;;;;;;;;;;;;;21.74;43.41;101078.19;5405046;32;34846;-69
2022/10/09 14:42:10;;;;;;;;;;;;;;;22.18;42.80;101076.66;5424091;32;45190;-70
2022/10/09 14:45:12;;;;;;;;;;;;;;;22.62;42.01;101078.56;5383062;32;35577;-77
2022/10/09 14:48:14;;;;;;;;;;;;;;;21.75;44.16;101084.37;5423832;32;35705;-79
2022/10/09 14:51:19;;;;;;;;;;;;;;;22.12;43.27;101078.00;5412988;32;34517;-77
2022/10/09 14:54:21;;;;;;;;;;;;;;;23.26;40.97;101077.97;5428915;32;35160;-77
2022/10/09 14:57:23;;;;;;;;;;;;;;;21.83;43.84;101081.97;5412617;32;35355;-70
2022/10/09 15:00:25;;;;;;;;;;;;;;;23.17;39.78;101081.37;5417002;32;35229;-75
2022/10/09 15:03:28;;;;;;;;;;;;;;;22.91;40.42;101075.44;5425068;32;35318;-70
2022/10/09 15:06:30;;;;;;;;;;;;;;;23.29;39.25;101080.38;5411357;32;35487;-76
2022/10/09 15:09:32;;;;;;;;;;;;;;;23.15;39.54;101084.19;5426343;32;35093;-69
2022/10/09 15:12:34;;;;;;;;;;;;;;;22.57;40.95;101078.06;5412265;32;34169;-70
2022/10/09 15:15:36;;;;;;;;;;;;;;;23.02;40.38;101082.62;5427557;32;34580;-77
2022/10/09 15:18:38;;;;;;;;;;;;;;;22.46;41.73;101088.78;5413245;32;34701;-77
2022/10/09 15:21:40;;;;;;;;;;;;;;;22.31;42.17;101092.66;5414587;32;44724;-75
2022/10/09 15:24:42;;;;;;;;;;;;;;;22.91;40.99;101094.19;5425002;32;35084;-77
2022/10/09 15:27:44;;;;;;;;;;;;;;;22.22;42.81;101098.69;5410999;32;34780;-78
2022/10/09 15:30:47;;;;;;;;;;;;;;;22.42;42.06;101095.34;5425390;32;35402;-78
2022/10/09 15:33:49;;;;;;;;;;;;;;;22.43;42.08;101102.41;5410041;32;34824;-70
2022/10/09 15:36:51;;;;;;;;;;;;;;;22.32;42.34;101113.09;5410907;32;34445;-77
2022/10/09 15:39:54;;;;;;;;;;;;;;;22.05;42.97;101111.53;5410409;32;35338;-69
2022/10/09 15:42:55;;;;;;;;;;;;;;;22.21;42.64;101110.38;5394083;32;34349;-69